Christian Reinauer — WDA6472 — position and weather

sailwx.info

Track history (hours):
 
Tides and Currents Weather Stations Pressure Air Temp Water Temp Dewpoint Dewpoint Depression Visibility Wind Speed Wind Dir Waves Ship Positions

Christian Reinauer

Owner: REINAUER TRANSPORTATION CO LLC, STATEN ISLAND, NY. More information available from US FCC via Universal Licensing System and Coast Guard Vessel Documentation Center.

Last reported at 2015-Mar-31 20:30 UTC. Time now 2015-Apr-01 03:08 UTC.
Position N 25°41' W 080°02'.

Length 170 m; draft 7 m.

Type: Ship (hazmat cat B). MMSI: 366832740.

Date/timePositionNaut miles runAvg speedWind from/ knotsBaromVisibWave heightAir tempDewpointWater temp
2015-Mar-31 20:30N 25°41' W 080°02'8 8.7
2015-Mar-31 19:33N 25°49' W 080°00'9 8.6
2015-Mar-31 18:33N 25°58' W 079°60'8 8.3
2015-Mar-31 17:33N 26°06' W 079°60'8 8.4
2015-Mar-31 16:33N 26°15' W 079°59'9 8.7
2015-Mar-31 15:33N 26°23' W 079°59'10 9.7
2015-Mar-31 14:33N 26°33' W 079°59'10 9.7
2015-Mar-31 13:32N 26°43' W 079°58'9 9.5
2015-Mar-31 12:33N 26°52' W 079°58'9 9.5
2015-Mar-31 11:33N 27°01' W 079°59'  
2015-Mar-29 03:25N 27°03' W 079°59'1213.3
2015-Mar-29 02:33N 26°51' W 079°58'70 3.4
2015-Mar-28 06:17N 25°42' W 080°01'168 6.8
2015-Mar-27 05:31N 25°34' W 083°07'1111.3
2015-Mar-27 04:33N 25°45' W 083°06'1111.3
2015-Mar-27 03:33N 25°57' W 083°06'1111.4
2015-Mar-27 02:33N 26°08' W 083°06'1111.3
2015-Mar-27 01:33N 26°19' W 083°04'1111.2
2015-Mar-27 00:33N 26°30' W 083°04'1110.3
2015-Mar-26 23:30N 26°41' W 083°03'66 8.2
2015-Mar-26 15:28N 27°42' W 082°33'8 7.6
2015-Mar-26 14:26N 27°50' W 082°34'2 2.5
2015-Mar-26 13:33N 27°52' W 082°33'0 0.0
2015-Mar-26 12:33N 27°52' W 082°33'0 0.0
2015-Mar-26 11:33N 27°52' W 082°33'0 0.0
2015-Mar-26 10:33N 27°52' W 082°33'0 0.0
2015-Mar-26 09:33N 27°52' W 082°33'0 0.0
2015-Mar-26 08:33N 27°52' W 082°33'0 0.0
2015-Mar-26 07:33N 27°52' W 082°33'0 0.0
2015-Mar-26 06:33N 27°52' W 082°33'0 0.0
2015-Mar-26 05:33N 27°52' W 082°33'0 0.0
2015-Mar-26 04:33N 27°52' W 082°33'0 0.0
2015-Mar-26 03:33N 27°52' W 082°33'0 0.0
2015-Mar-26 02:33N 27°52' W 082°33'0 0.0
2015-Mar-26 01:33N 27°52' W 082°33'0 0.0
2015-Mar-26 00:30N 27°52' W 082°33'0 0.0
2015-Mar-25 23:33N 27°52' W 082°33'0 0.0
2015-Mar-25 22:33N 27°52' W 082°33'0 0.0
2015-Mar-25 21:33N 27°52' W 082°33'0 0.0
2015-Mar-25 20:33N 27°52' W 082°33'0 0.0
2015-Mar-25 19:33N 27°52' W 082°33'0 0.0
2015-Mar-25 18:33N 27°52' W 082°33'0 0.0
2015-Mar-25 17:33N 27°52' W 082°33'2 2.0
2015-Mar-25 16:33N 27°50' W 082°34'7 7.1
2015-Mar-25 15:33N 27°43' W 082°32'1210.4
2015-Mar-25 14:23N 27°36' W 082°44'910.9
2015-Mar-25 13:33N 27°36' W 082°54'4 4.3
2015-Mar-25 12:31N 27°37' W 082°59'5 5.2
2015-Mar-25 11:33N 27°39' W 083°04'5 4.9
2015-Mar-25 10:33N 27°37' W 083°09'38210.0
2015-Mar-23 20:18N 29°53' W 089°57'5 6.4
2015-Mar-23 19:33N 29°56' W 090°00'1 0.2
2015-Mar-23 13:06N 29°57' W 090°02'0 0.0
2015-Mar-23 12:09N 29°57' W 090°02'0 0.0
2015-Mar-23 09:30N 29°57' W 090°02'6 6.2
2015-Mar-23 08:29N 29°57' W 090°09'  
Track history (hours):
 
Tides and Currents Weather Stations Pressure Air Temp Water Temp Dewpoint Dewpoint Depression Visibility Wind Speed Wind Dir Waves Ship Positions

Christian Reinauer

Owner: REINAUER TRANSPORTATION CO LLC, STATEN ISLAND, NY. More information available from US FCC via Universal Licensing System and Coast Guard Vessel Documentation Center.

Last reported at 2015-Mar-31 20:30 UTC. Time now 2015-Apr-01 03:08 UTC.
Position N 25°41' W 080°02'.

Length 170 m; draft 7 m.

Type: Ship (hazmat cat B). MMSI: 366832740.

Date/timePositionNaut miles runAvg speedWind from/ knotsBaromVisibWave heightAir tempDewpointWater temp
2015-Mar-31 20:30N 25°41' W 080°02'8 8.7
2015-Mar-31 19:33N 25°49' W 080°00'9 8.6
2015-Mar-31 18:33N 25°58' W 079°60'8 8.3
2015-Mar-31 17:33N 26°06' W 079°60'8 8.4
2015-Mar-31 16:33N 26°15' W 079°59'9 8.7
2015-Mar-31 15:33N 26°23' W 079°59'10 9.7
2015-Mar-31 14:33N 26°33' W 079°59'10 9.7
2015-Mar-31 13:32N 26°43' W 079°58'9 9.5
2015-Mar-31 12:33N 26°52' W 079°58'9 9.5
2015-Mar-31 11:33N 27°01' W 079°59'  
2015-Mar-29 03:25N 27°03' W 079°59'1213.3
2015-Mar-29 02:33N 26°51' W 079°58'70 3.4
2015-Mar-28 06:17N 25°42' W 080°01'168 6.8
2015-Mar-27 05:31N 25°34' W 083°07'1111.3
2015-Mar-27 04:33N 25°45' W 083°06'1111.3
2015-Mar-27 03:33N 25°57' W 083°06'1111.4
2015-Mar-27 02:33N 26°08' W 083°06'1111.3
2015-Mar-27 01:33N 26°19' W 083°04'1111.2
2015-Mar-27 00:33N 26°30' W 083°04'1110.3
2015-Mar-26 23:30N 26°41' W 083°03'66 8.2
2015-Mar-26 15:28N 27°42' W 082°33'8 7.6
2015-Mar-26 14:26N 27°50' W 082°34'2 2.5
2015-Mar-26 13:33N 27°52' W 082°33'0 0.0
2015-Mar-26 12:33N 27°52' W 082°33'0 0.0
2015-Mar-26 11:33N 27°52' W 082°33'0 0.0
2015-Mar-26 10:33N 27°52' W 082°33'0 0.0
2015-Mar-26 09:33N 27°52' W 082°33'0 0.0
2015-Mar-26 08:33N 27°52' W 082°33'0 0.0
2015-Mar-26 07:33N 27°52' W 082°33'0 0.0
2015-Mar-26 06:33N 27°52' W 082°33'0 0.0
2015-Mar-26 05:33N 27°52' W 082°33'0 0.0
2015-Mar-26 04:33N 27°52' W 082°33'0 0.0
2015-Mar-26 03:33N 27°52' W 082°33'0 0.0
2015-Mar-26 02:33N 27°52' W 082°33'0 0.0
2015-Mar-26 01:33N 27°52' W 082°33'0 0.0
2015-Mar-26 00:30N 27°52' W 082°33'0 0.0
2015-Mar-25 23:33N 27°52' W 082°33'0 0.0
2015-Mar-25 22:33N 27°52' W 082°33'0 0.0
2015-Mar-25 21:33N 27°52' W 082°33'0 0.0
2015-Mar-25 20:33N 27°52' W 082°33'0 0.0
2015-Mar-25 19:33N 27°52' W 082°33'0 0.0
2015-Mar-25 18:33N 27°52' W 082°33'0 0.0
2015-Mar-25 17:33N 27°52' W 082°33'2 2.0
2015-Mar-25 16:33N 27°50' W 082°34'7 7.1
2015-Mar-25 15:33N 27°43' W 082°32'1210.4
2015-Mar-25 14:23N 27°36' W 082°44'910.9
2015-Mar-25 13:33N 27°36' W 082°54'4 4.3
2015-Mar-25 12:31N 27°37' W 082°59'5 5.2
2015-Mar-25 11:33N 27°39' W 083°04'5 4.9
2015-Mar-25 10:33N 27°37' W 083°09'38210.0
2015-Mar-23 20:18N 29°53' W 089°57'5 6.4
2015-Mar-23 19:33N 29°56' W 090°00'1 0.2
2015-Mar-23 13:06N 29°57' W 090°02'0 0.0
2015-Mar-23 12:09N 29°57' W 090°02'0 0.0
2015-Mar-23 09:30N 29°57' W 090°02'6 6.2
2015-Mar-23 08:29N 29°57' W 090°09'  

Dump ship's entire track history